Time;durP1;ratioP1;P1;durP2;ratioP2;P2;SDS_P1;SDS_P2;PMS_P1;PMS_P2;Temp;Humidity;BMP_temperature;BMP_pressure;BME280_temperature;BME280_humidity;BME280_pressure;Samples;Min_cycle;Max_cycle;Signal;HPM_P1;HPM_P2
2024/04/08 00:02:31;;;;;;;8.60;3.25;;;;;;;21.74;50.20;100601.09;2315155;76;50750;-79
2024/04/08 00:05:34;;;;;;;6.53;3.10;;;;;;;21.74;50.14;100576.85;2290619;76;50121;-79
2024/04/08 00:08:36;;;;;;;9.63;3.05;;;;;;;21.74;50.24;100571.47;2291060;76;51463;-81
2024/04/08 00:11:38;;;;;;;8.20;3.12;;;;;;;21.74;50.32;100606.48;2315171;76;50348;-81
2024/04/08 00:14:40;;;;;;;6.90;3.35;;;;;;;21.73;50.46;100613.73;2315135;76;51480;-81
2024/04/08 00:17:43;;;;;;;6.03;3.08;;;;;;;21.73;50.36;100607.49;2314917;76;51408;-81
2024/04/08 00:20:45;;;;;;;8.75;3.20;;;;;;;21.72;50.44;100612.58;2265697;76;49874;-81
2024/04/08 00:23:48;;;;;;;10.53;3.65;;;;;;;21.72;50.35;100603.98;2314999;76;51556;-80
2024/04/08 00:26:51;;;;;;;6.50;3.05;;;;;;;21.72;50.24;100595.90;2314664;76;50461;-80
2024/04/08 00:29:53;;;;;;;8.25;3.25;;;;;;;21.73;50.26;100600.76;2290568;76;50067;-80
2024/04/08 00:32:55;;;;;;;11.03;3.47;;;;;;;21.74;50.18;100602.44;2289513;76;50350;-80
2024/04/08 00:35:58;;;;;;;7.37;2.55;;;;;;;21.74;50.10;100588.97;2290604;76;50666;-80
2024/04/08 00:39:00;;;;;;;8.73;3.85;;;;;;;21.74;50.17;100597.88;2289568;76;51415;-80
2024/04/08 00:42:02;;;;;;;5.78;3.02;;;;;;;21.73;50.16;100598.06;2316653;76;50376;-80
2024/04/08 00:45:05;;;;;;;5.33;3.12;;;;;;;21.73;50.10;100594.88;2259365;76;51133;-80
2024/04/08 00:48:07;;;;;;;5.67;3.08;;;;;;;21.73;50.10;100608.84;2291126;76;50954;-82
2024/04/08 00:51:10;;;;;;;6.05;3.08;;;;;;;21.73;50.13;100611.53;2316310;76;50727;-82
2024/04/08 00:54:12;;;;;;;8.83;3.22;;;;;;;21.72;50.07;100603.16;2298210;76;50973;-81
2024/04/08 00:57:14;;;;;;;7.12;3.05;;;;;;;21.73;50.07;100585.95;2324827;76;50802;-81
2024/04/08 01:00:16;;;;;;;8.73;3.17;;;;;;;21.74;49.96;100572.81;2324954;76;51400;-80
2024/04/08 01:03:18;;;;;;;11.03;3.20;;;;;;;21.73;49.98;100598.06;2297930;76;51452;-81
2024/04/08 01:06:21;;;;;;;10.30;3.10;;;;;;;21.73;49.98;100620.95;2324741;75;51746;-81
2024/04/08 01:09:23;;;;;;;6.97;2.83;;;;;;;21.72;50.06;100622.83;2297643;76;50060;-81
2024/04/08 01:12:25;;;;;;;9.10;2.92;;;;;;;21.73;50.04;100603.45;2324702;76;50945;-80
2024/04/08 01:15:28;;;;;;;7.58;3.40;;;;;;;21.74;49.89;100563.39;2324578;76;50368;-81
2024/04/08 01:18:30;;;;;;;7.50;3.00;;;;;;;21.75;49.88;100538.10;2298044;76;50924;-81
2024/04/08 01:21:32;;;;;;;6.67;3.00;;;;;;;21.76;49.79;100502.07;2324883;76;50766;-81
2024/04/08 01:24:34;;;;;;;8.18;2.70;;;;;;;21.74;49.80;100471.82;2324898;76;50261;-81
2024/04/08 01:27:36;;;;;;;7.85;3.10;;;;;;;21.76;49.80;100461.67;2297706;76;50701;-81
2024/04/08 01:30:39;;;;;;;5.08;2.98;;;;;;;21.76;49.80;100460.33;2324888;76;51463;-80
2024/04/08 01:33:42;;;;;;;7.00;3.15;;;;;;;21.75;49.78;100453.27;2297790;76;51161;-82
2024/04/08 01:36:44;;;;;;;5.83;2.40;;;;;;;21.75;49.76;100443.84;2324555;76;51567;-80
2024/04/08 01:39:47;;;;;;;6.55;2.52;;;;;;;21.74;49.76;100453.79;2324518;76;51518;-81
2024/04/08 01:42:49;;;;;;;6.08;3.20;;;;;;;21.74;49.87;100479.90;2297352;76;50982;-81
2024/04/08 01:45:56;;;;;;;5.47;2.62;;;;;;;21.73;49.93;100506.02;2324442;76;51518;-82
2024/04/08 01:48:55;;;;;;;5.67;2.58;;;;;;;21.71;49.93;100539.05;2323270;76;22836;-81
2024/04/08 01:51:58;;;;;;;6.37;3.00;;;;;;;21.71;50.00;100563.80;2296957;76;50822;-80
2024/04/08 01:55:00;;;;;;;4.47;2.72;;;;;;;21.71;49.98;100561.94;2324791;76;51417;-80
2024/04/08 01:58:02;;;;;;;8.23;2.50;;;;;;;21.72;50.01;100565.45;2297836;76;49517;-81
2024/04/08 02:01:05;;;;;;;9.08;2.92;;;;;;;21.72;49.87;100547.95;2325013;76;51573;-81
2024/04/08 02:04:07;;;;;;;5.65;3.00;;;;;;;21.73;49.76;100538.82;2324650;76;51993;-81
2024/04/08 02:07:09;;;;;;;7.12;2.72;;;;;;;21.73;49.83;100551.80;2297530;76;49709;-80
2024/04/08 02:10:11;;;;;;;6.47;3.00;;;;;;;21.73;49.81;100553.63;2324549;76;51277;-81
2024/04/08 02:13:14;;;;;;;6.97;2.60;;;;;;;21.72;49.81;100546.60;2324244;76;50269;-81
2024/04/08 02:16:16;;;;;;;5.85;2.85;;;;;;;21.73;49.75;100538.82;2324165;76;50793;-80
2024/04/08 02:19:18;;;;;;;6.28;3.05;;;;;;;21.72;49.69;100533.13;2297642;76;50742;-81
2024/04/08 02:22:20;;;;;;;4.53;2.90;;;;;;;21.72;49.70;100531.27;2297573;76;50854;-81
2024/04/08 02:25:23;;;;;;;6.28;2.62;;;;;;;21.73;49.63;100514.58;2324135;76;50202;-81
2024/04/08 02:28:25;;;;;;;6.50;2.92;;;;;;;21.73;49.65;100517.27;2297711;76;50669;-81
2024/04/08 02:31:27;;;;;;;5.72;2.75;;;;;;;21.73;49.70;100522.17;2271968;76;51495;-81
2024/04/08 02:34:30;;;;;;;8.98;2.87;;;;;;;21.73;49.69;100514.58;2323891;76;52080;-80
2024/04/08 02:37:33;;;;;;;7.45;2.62;;;;;;;21.72;49.63;100500.81;2323663;76;50729;-80
2024/04/08 02:40:36;;;;;;;6.95;2.65;;;;;;;21.72;49.63;100507.55;2323649;76;51480;-80
2024/04/08 02:43:39;;;;;;;5.90;2.72;;;;;;;21.72;49.67;100508.90;2323495;76;51628;-81
2024/04/08 02:46:41;;;;;;;6.45;2.70;;;;;;;21.71;49.66;100505.91;2296301;76;50134;-81
2024/04/08 02:49:43;;;;;;;7.60;2.65;;;;;;;21.72;49.65;100498.13;2323457;76;51538;-80
2024/04/08 02:52:46;;;;;;;4.90;2.55;;;;;;;21.71;49.63;100493.78;2323366;76;50720;-79
2024/04/08 02:55:48;;;;;;;5.00;2.35;;;;;;;21.72;49.72;100481.97;2296501;76;50907;-80
2024/04/08 02:58:50;;;;;;;5.10;2.52;;;;;;;21.71;49.72;100477.11;2297185;76;51464;-81
2024/04/08 03:01:52;;;;;;;8.08;3.00;;;;;;;21.71;49.73;100476.28;2324197;76;50653;-82
2024/04/08 03:04:54;;;;;;;6.10;2.83;;;;;;;21.71;49.74;100477.63;2324388;76;50737;-82
2024/04/08 03:07:56;;;;;;;6.25;2.67;;;;;;;21.71;49.69;100476.28;2324420;76;50253;-80
2024/04/08 03:10:59;;;;;;;6.53;2.20;;;;;;;21.70;49.75;100478.13;2297664;76;50087;-80
2024/04/08 03:14:01;;;;;;;6.85;2.72;;;;;;;21.70;49.69;100482.69;2297698;76;50447;-81
2024/04/08 03:17:03;;;;;;;5.62;2.50;;;;;;;21.71;49.65;100481.67;2324532;76;50024;-81
2024/04/08 03:20:06;;;;;;;5.50;2.72;;;;;;;21.71;49.68;100491.92;2272684;76;51515;-82
2024/04/08 03:23:08;;;;;;;5.58;2.70;;;;;;;21.71;49.64;100491.09;2296452;76;50155;-81
2024/04/08 03:26:12;;;;;;;4.97;2.70;;;;;;;21.71;49.62;100485.70;2324632;75;50705;-80
2024/04/08 03:29:14;;;;;;;6.15;2.92;;;;;;;21.71;49.63;100480.32;2324883;76;22761;-80
2024/04/08 03:32:16;;;;;;;4.97;3.10;;;;;;;21.70;49.61;100476.77;2324834;76;51770;-80
2024/04/08 03:35:19;;;;;;;5.80;2.90;;;;;;;21.71;49.62;100469.55;2272321;76;50992;-80
2024/04/08 03:38:21;;;;;;;9.33;2.62;;;;;;;21.69;49.62;100471.09;2324518;76;50726;-82
2024/04/08 03:41:23;;;;;;;5.42;2.70;;;;;;;21.70;49.65;100474.61;2298105;76;50043;-80
2024/04/08 03:44:25;;;;;;;5.65;2.60;;;;;;;21.70;49.65;100482.16;2272882;76;49649;-81
2024/04/08 03:47:27;;;;;;;5.85;2.70;;;;;;;21.70;49.64;100479.99;2324427;76;50405;-80
2024/04/08 03:50:37;;;;;;;9.43;3.12;;;;;;;21.70;49.63;100485.38;2324618;76;50598;-81
2024/04/08 03:53:39;;;;;;;6.28;2.92;;;;;;;21.70;49.63;100484.85;2298637;76;51571;-81
2024/04/08 03:56:42;;;;;;;6.20;3.20;;;;;;;21.69;49.63;100472.44;2324278;76;51427;-81
2024/04/08 03:59:46;;;;;;;6.70;2.95;;;;;;;21.70;49.64;100467.87;2297941;76;50065;-82
2024/04/08 04:02:48;;;;;;;5.42;2.40;;;;;;;21.70;49.65;100469.22;2297934;76;51593;-82
2024/04/08 04:05:50;;;;;;;5.58;2.55;;;;;;;21.69;49.65;100467.05;2324621;75;51556;-81
2024/04/08 04:08:52;;;;;;;6.10;2.75;;;;;;;21.70;49.65;100463.84;2297552;76;50076;-80
2024/04/08 04:11:54;;;;;;;5.33;2.95;;;;;;;21.69;49.63;100462.19;2297592;76;51539;-82
2024/04/08 04:14:57;;;;;;;4.75;2.70;;;;;;;21.69;49.63;100466.23;2324481;76;51506;-81
2024/04/08 04:18:00;;;;;;;4.60;2.50;;;;;;;21.70;49.65;100458.45;2324539;76;51656;-80
2024/04/08 04:21:02;;;;;;;6.33;2.70;;;;;;;21.70;49.63;100451.72;2324382;76;50612;-81
2024/04/08 04:24:04;;;;;;;7.47;2.45;;;;;;;21.69;49.63;100449.55;2272628;76;50071;-81
2024/04/08 04:27:07;;;;;;;7.03;2.40;;;;;;;21.69;49.66;100432.05;2296493;76;51299;-82
2024/04/08 04:30:09;;;;;;;5.40;2.72;;;;;;;21.68;49.66;100437.63;2324630;76;50766;-80
2024/04/08 04:33:12;;;;;;;3.35;2.30;;;;;;;21.68;49.64;100429.05;2272399;76;51017;-81
2024/04/08 04:36:14;;;;;;;8.13;2.58;;;;;;;21.68;49.66;100445.70;2323931;76;52074;-82
2024/04/08 04:39:16;;;;;;;5.87;2.62;;;;;;;21.67;49.71;100438.67;2324279;76;50692;-81
2024/04/08 04:42:19;;;;;;;8.58;2.70;;;;;;;21.67;49.82;100439.50;2324300;76;50683;-81
2024/04/08 04:45:22;;;;;;;8.33;2.65;;;;;;;21.66;49.81;100439.20;2324129;76;51564;-81
2024/04/08 04:48:24;;;;;;;7.08;2.60;;;;;;;21.66;49.86;100445.94;2297597;76;50093;-83
2024/04/08 04:51:26;;;;;;;9.35;2.47;;;;;;;21.67;49.85;100458.88;2324100;76;51557;-83
2024/04/08 04:54:29;;;;;;;7.92;2.98;;;;;;;21.64;50.47;100469.55;2297238;76;51424;-85
2024/04/08 04:57:31;;;;;;;6.08;2.58;;;;;;;21.63;50.96;100464.34;2296980;76;50801;-83
2024/04/08 05:00:38;;;;;;;19.23;3.37;;;;;;;21.63;51.18;100454.92;2361437;75;52102;-83
2024/04/08 05:03:37;;;;;;;13.83;3.08;;;;;;;21.60;51.64;100442.70;2331397;75;22492;-83
2024/04/08 05:06:40;;;;;;;24.07;4.00;;;;;;;21.64;51.38;100447.18;2331371;75;50141;-83
2024/04/08 05:09:42;;;;;;;27.30;4.47;;;;;;;21.63;51.92;100450.39;2331103;75;51418;-83
2024/04/08 05:12:44;;;;;;;22.30;3.83;;;;;;;21.68;51.45;100470.80;2332588;75;50951;-83
2024/04/08 05:16:00;;;;;;;21.33;3.55;;;;;;;21.70;52.35;100473.27;2367744;75;50710;-84
2024/04/08 05:19:02;;;;;;;20.15;4.40;;;;;;;21.70;52.28;100468.70;2333681;75;50458;-82
2024/04/08 05:22:04;;;;;;;18.35;3.60;;;;;;;21.74;52.20;100482.59;2305700;75;49687;-83
2024/04/08 05:25:07;;;;;;;24.18;4.30;;;;;;;21.73;52.51;100481.77;2368505;75;50692;-83
2024/04/08 05:28:09;;;;;;;53.98;6.17;;;;;;;21.73;52.44;100467.45;2333757;75;50467;-83
2024/04/08 05:31:12;;;;;;;41.05;6.58;;;;;;;21.74;52.49;100469.12;2367447;75;50722;-82
2024/04/08 05:34:14;;;;;;;53.58;6.70;;;;;;;21.73;52.45;100468.30;2367381;75;50611;-83
2024/04/08 05:37:16;;;;;;;50.65;5.97;;;;;;;21.75;52.39;100477.50;2332123;75;50118;-82
2024/04/08 05:40:19;;;;;;;33.90;6.15;;;;;;;21.77;52.25;100482.17;2367557;75;51501;-82
2024/04/08 05:43:21;;;;;;;38.78;6.70;;;;;;;21.79;52.55;100489.53;2367522;75;51533;-82
2024/04/08 05:46:24;;;;;;;35.58;5.83;;;;;;;21.78;52.53;100489.20;2332651;75;51076;-84
2024/04/08 05:49:26;;;;;;;40.67;5.22;;;;;;;21.79;52.44;100496.79;2332750;75;50069;-84
2024/04/08 05:52:28;;;;;;;30.80;6.00;;;;;;;21.78;52.39;100506.70;2332104;75;50655;-84
2024/04/08 05:55:31;;;;;;;48.42;6.12;;;;;;;21.77;52.61;100519.05;2367966;75;52380;-84
2024/04/08 05:58:33;;;;;;;31.27;5.40;;;;;;;21.79;52.32;100535.84;2367976;75;51257;-84
2024/04/08 06:01:36;;;;;;;31.15;5.10;;;;;;;21.78;52.41;100551.15;2332760;75;49510;-84
2024/04/08 06:04:38;;;;;;;18.25;3.80;;;;;;;21.77;52.54;100533.34;2367652;75;50266;-85
2024/04/08 06:07:40;;;;;;;27.48;5.08;;;;;;;21.78;52.30;100532.30;2367937;75;50375;-85
2024/04/08 06:10:50;;;;;;;23.83;4.70;;;;;;;21.76;52.00;100523.62;2333073;75;50914;-83
2024/04/08 06:13:46;;;;;;;18.75;4.53;;;;;;;21.75;51.70;100519.25;2366974;75;22163;-83
2024/04/08 06:16:48;;;;;;;19.45;4.17;;;;;;;21.75;51.51;100520.07;2368170;75;50405;-83
2024/04/08 06:19:51;;;;;;;22.32;4.55;;;;;;;21.75;51.35;100519.25;2368202;75;50681;-83
2024/04/08 06:22:53;;;;;;;22.93;4.60;;;;;;;21.76;51.37;100526.31;2368077;75;51479;-83
2024/04/08 06:25:59;;;;;;;18.52;4.00;;;;;;;21.75;51.30;100544.84;2306629;75;51019;-83
2024/04/08 06:29:02;;;;;;;21.48;4.25;;;;;;;21.74;51.35;100549.40;2333408;75;50481;-84
2024/04/08 06:32:04;;;;;;;22.58;4.50;;;;;;;21.75;51.27;100553.73;2368205;75;52216;-83
2024/04/08 06:35:07;;;;;;;22.10;4.67;;;;;;;21.74;51.17;100546.70;2280008;75;50113;-83
2024/04/08 06:38:10;;;;;;;23.73;3.98;;;;;;;21.74;51.21;100553.96;2333022;75;51558;-83
2024/04/08 06:41:12;;;;;;;15.98;4.58;;;;;;;21.73;51.12;100553.14;2368141;75;51841;-83
2024/04/08 06:44:15;;;;;;;20.52;4.22;;;;;;;21.74;51.15;100555.31;2368029;75;50899;-82
2024/04/08 06:47:17;;;;;;;20.10;4.05;;;;;;;21.74;51.22;100558.00;2367918;75;51609;-83
2024/04/08 06:50:19;;;;;;;19.95;4.90;;;;;;;21.73;51.02;100553.63;2332889;75;49321;-85
2024/04/08 06:53:22;;;;;;;13.38;4.12;;;;;;;21.73;51.16;100549.59;2333136;75;50051;-84
2024/04/08 06:56:24;;;;;;;19.00;4.40;;;;;;;21.72;51.30;100554.16;2368398;75;52417;-85
2024/04/08 06:59:27;;;;;;;13.65;3.72;;;;;;;21.72;51.13;100561.41;2333199;75;51387;-85
2024/04/08 07:02:30;;;;;;;14.35;3.40;;;;;;;21.71;51.41;100555.73;2368712;75;51519;-85
2024/04/08 07:05:32;;;;;;;19.42;3.75;;;;;;;21.72;51.27;100569.49;2368478;75;50797;-86
2024/04/08 07:08:35;;;;;;;18.17;3.80;;;;;;;21.72;51.19;100566.27;2333639;75;51477;-84
2024/04/08 07:11:37;;;;;;;19.50;3.87;;;;;;;21.72;51.10;100573.53;2306403;75;51195;-84
2024/04/08 07:14:39;;;;;;;13.98;4.30;;;;;;;21.72;51.03;100571.66;2305854;75;50807;-83
2024/04/08 07:17:41;;;;;;;14.78;3.60;;;;;;;21.72;51.14;100562.23;2367808;75;51457;-83
2024/04/08 07:20:43;;;;;;;16.20;4.33;;;;;;;21.73;51.06;100565.26;2367634;75;51402;-82
2024/04/08 07:23:51;;;;;;;14.28;3.22;;;;;;;21.73;51.06;100548.25;2332447;75;49617;-84
2024/04/08 07:26:49;;;;;;;8.98;3.60;;;;;;;21.73;50.98;100548.25;2366949;75;22445;-84
2024/04/08 07:29:52;;;;;;;15.35;4.22;;;;;;;21.73;51.16;100554.98;2367649;75;51477;-83
2024/04/08 07:32:55;;;;;;;10.68;3.58;;;;;;;21.74;51.33;100556.66;2367469;75;50411;-82
2024/04/08 07:35:57;;;;;;;13.10;3.27;;;;;;;21.74;51.42;100570.94;2367691;75;50791;-85
2024/04/08 07:38:59;;;;;;;8.08;3.42;;;;;;;21.75;51.68;100583.88;2332626;75;50957;-83
2024/04/08 07:42:01;;;;;;;13.32;3.45;;;;;;;21.74;51.78;100565.55;2368110;75;51418;-84
2024/04/08 07:45:04;;;;;;;12.18;3.47;;;;;;;21.75;51.81;100559.64;2367926;75;51518;-83
2024/04/08 07:48:06;;;;;;;13.10;3.83;;;;;;;21.76;51.80;100553.24;2305870;75;50096;-84
2024/04/08 07:51:08;;;;;;;10.38;3.70;;;;;;;21.77;51.79;100538.73;2305997;75;51482;-83
2024/04/08 07:54:10;;;;;;;10.32;3.35;;;;;;;21.77;51.71;100507.76;2331598;75;50712;-84
2024/04/08 07:57:13;;;;;;;12.53;3.55;;;;;;;21.78;51.77;100484.34;2331415;75;50581;-85
2024/04/08 08:00:16;;;;;;;10.20;3.42;;;;;;;21.77;51.79;100462.50;2332902;75;50996;-84
2024/04/08 08:03:18;;;;;;;8.03;3.20;;;;;;;21.79;51.63;100461.25;2306091;75;51623;-84
2024/04/08 08:06:20;;;;;;;11.78;3.20;;;;;;;21.79;51.55;100437.02;2332603;75;50983;-83
2024/04/08 08:09:22;;;;;;;9.90;3.55;;;;;;;21.79;51.51;100427.59;2367579;75;51435;-85
2024/04/08 08:12:25;;;;;;;8.10;3.42;;;;;;;21.79;51.47;100446.44;2367511;75;50221;-83
2024/04/08 08:15:27;;;;;;;14.13;3.58;;;;;;;21.81;51.43;100454.29;2367635;75;52229;-83
2024/04/08 08:18:31;;;;;;;9.03;3.50;;;;;;;21.80;51.43;100484.44;2367576;75;50202;-84
2024/04/08 08:21:33;;;;;;;6.97;3.10;;;;;;;21.80;51.43;100493.87;2368093;75;24100;-84
2024/04/08 08:24:36;;;;;;;6.65;2.95;;;;;;;21.82;51.35;100451.92;2367714;75;51501;-84
2024/04/08 08:27:38;;;;;;;11.20;3.08;;;;;;;21.79;51.30;100439.70;2367878;75;50728;-84
2024/04/08 08:30:41;;;;;;;7.87;3.67;;;;;;;21.80;51.25;100460.20;2332761;75;52384;-83
2024/04/08 08:33:43;;;;;;;9.98;3.20;;;;;;;21.80;51.24;100445.91;2367781;75;50760;-84
2024/04/08 08:36:48;;;;;;;7.35;3.52;;;;;;;21.80;51.22;100431.10;2367572;75;51424;-84
2024/04/08 08:39:50;;;;;;;8.30;3.17;;;;;;;21.80;51.29;100398.78;2367604;74;22301;-83
2024/04/08 08:42:54;;;;;;;8.70;2.95;;;;;;;21.79;51.21;100366.98;2332532;75;49601;-83
2024/04/08 08:45:56;;;;;;;11.45;3.40;;;;;;;21.79;51.27;100349.48;2332781;75;49660;-83
2024/04/08 08:49:00;;;;;;;8.70;2.95;;;;;;;21.79;51.27;100366.16;2367549;75;51476;-84
2024/04/08 08:52:05;;;;;;;6.00;2.85;;;;;;;21.79;51.23;100377.76;2367523;75;51278;-83
2024/04/08 08:55:07;;;;;;;10.48;3.12;;;;;;;21.79;51.31;100350.01;2331548;75;24343;-85
2024/04/08 08:58:11;;;;;;;9.58;3.08;;;;;;;21.79;51.29;100325.24;2332284;75;50783;-83
2024/04/08 09:01:13;;;;;;;5.97;2.83;;;;;;;21.78;51.29;100316.84;2323327;75;49629;-86
2024/04/08 09:04:15;;;;;;;7.67;3.00;;;;;;;21.79;51.24;100343.27;2367679;75;50349;-84
2024/04/08 09:07:17;;;;;;;9.68;3.27;;;;;;;21.79;51.11;100354.87;2367563;75;51009;-84
2024/04/08 09:10:20;;;;;;;11.12;3.60;;;;;;;21.81;51.22;100304.81;2332304;75;50865;-83
2024/04/08 09:13:26;;;;;;;8.73;3.33;;;;;;;21.83;51.21;100317.55;2367563;75;51470;-84
2024/04/08 09:16:28;;;;;;;8.48;2.85;;;;;;;21.84;51.24;100313.84;2367668;75;51559;-83
2024/04/08 09:19:30;;;;;;;7.37;2.83;;;;;;;21.84;51.22;100320.57;2305531;75;49541;-86
2024/04/08 09:22:33;;;;;;;7.20;2.70;;;;;;;21.83;51.17;100360.13;2367912;75;50454;-85
2024/04/08 09:25:35;;;;;;;8.23;3.10;;;;;;;21.84;51.15;100357.75;2331055;75;50382;-83
2024/04/08 09:28:39;;;;;;;8.28;3.10;;;;;;;21.85;51.18;100355.87;2305820;75;50699;-84
2024/04/08 09:31:41;;;;;;;7.83;2.90;;;;;;;21.85;51.26;100359.39;2367995;75;51991;-84
2024/04/08 09:34:44;;;;;;;7.58;3.15;;;;;;;21.86;51.28;100374.54;2332691;75;51033;-82
2024/04/08 09:37:46;;;;;;;7.75;2.70;;;;;;;21.86;51.29;100369.15;2331481;75;51494;-85
2024/04/08 09:40:48;;;;;;;6.10;3.10;;;;;;;21.86;51.29;100360.22;2368221;75;51465;-84
2024/04/08 09:43:50;;;;;;;7.08;2.92;;;;;;;21.85;51.25;100354.01;2332395;75;50985;-82
2024/04/08 09:46:52;;;;;;;8.23;3.00;;;;;;;21.86;51.23;100354.83;2367539;75;50397;-85
2024/04/08 09:49:55;;;;;;;9.35;3.08;;;;;;;21.87;51.25;100368.63;2367654;75;50695;-84
2024/04/08 09:52:57;;;;;;;6.22;2.60;;;;;;;21.87;51.30;100368.63;2367651;75;50596;-83
2024/04/08 09:56:04;;;;;;;6.10;2.62;;;;;;;21.88;51.29;100409.32;2367286;75;51457;-84
2024/04/08 09:59:20;;;;;;;8.18;2.98;;;;;;;21.87;51.22;100360.02;2331980;75;50969;-84
2024/04/08 10:02:28;;;;;;;7.62;2.77;;;;;;;21.87;51.22;100319.61;2367508;75;52064;-85
2024/04/08 10:05:31;;;;;;;5.05;2.95;;;;;;;21.88;51.20;100312.36;2366763;75;50760;-83
2024/04/08 10:08:34;;;;;;;5.30;2.85;;;;;;;21.89;51.15;100312.68;2332086;75;51039;-84
2024/04/08 10:11:36;;;;;;;6.75;2.42;;;;;;;21.88;51.17;100325.30;2367178;75;50791;-84
2024/04/08 10:14:38;;;;;;;4.35;2.45;;;;;;;21.90;51.17;100331.30;2330725;75;50123;-85
2024/04/08 10:17:45;;;;;;;8.78;3.05;;;;;;;21.90;51.18;100325.09;2367311;75;50740;-83
2024/04/08 10:20:47;;;;;;;6.35;2.80;;;;;;;21.91;51.24;100337.02;2364405;75;50470;-84
2024/04/08 10:23:54;;;;;;;5.25;2.62;;;;;;;21.93;51.22;100339.48;2304882;75;50059;-84
2024/04/08 10:27:05;;;;;;;6.00;2.70;;;;;;;21.95;51.31;100343.62;2367393;75;51539;-82
2024/04/08 10:30:07;;;;;;;4.40;2.40;;;;;;;21.97;51.28;100331.30;2366146;75;50763;-83
2024/04/08 10:33:14;;;;;;;9.93;2.90;;;;;;;21.98;51.29;100315.95;2279514;75;50087;-84
2024/04/08 10:36:13;;;;;;;5.22;2.60;;;;;;;22.00;51.31;100326.00;2365837;75;22256;-82
2024/04/08 10:39:17;;;;;;;5.17;2.80;;;;;;;22.01;51.33;100326.30;2367375;75;50675;-83
2024/04/08 10:42:24;;;;;;;5.90;2.75;;;;;;;22.01;51.37;100333.03;2305349;75;50707;-83
2024/04/08 10:45:23;;;;;;;6.72;2.80;;;;;;;22.03;51.38;100345.77;2367192;75;22383;-84
2024/04/08 10:48:25;;;;;;;6.58;2.75;;;;;;;22.04;51.37;100346.06;2332659;75;49462;-83
2024/04/08 10:51:29;;;;;;;5.90;2.65;;;;;;;22.06;51.37;100339.95;2332850;75;50755;-84
2024/04/08 10:54:32;;;;;;;6.50;3.00;;;;;;;22.05;51.36;100336.44;2367773;75;51537;-83
2024/04/08 10:57:35;;;;;;;7.85;2.25;;;;;;;22.07;51.36;100317.38;2332523;75;50105;-84
2024/04/08 11:00:37;;;;;;;4.90;2.40;;;;;;;22.07;51.32;100317.38;2367704;75;50679;-84
2024/04/08 11:03:39;;;;;;;6.50;2.77;;;;;;;22.07;51.36;100328.16;2367531;75;51439;-83
2024/04/08 11:06:41;;;;;;;6.12;2.40;;;;;;;22.08;51.33;100332.48;2367664;75;51513;-83
2024/04/08 11:09:43;;;;;;;5.08;2.70;;;;;;;22.08;51.38;100313.62;2367906;75;51457;-83
2024/04/08 11:12:46;;;;;;;6.58;2.45;;;;;;;22.09;51.34;100325.55;2332340;75;50140;-83
2024/04/08 11:15:51;;;;;;;5.05;2.65;;;;;;;22.10;51.37;100320.45;2332717;75;51534;-83
2024/04/08 11:18:53;;;;;;;4.92;2.50;;;;;;;22.11;51.41;100321.27;2331166;75;50475;-83
2024/04/08 11:21:57;;;;;;;4.45;2.30;;;;;;;22.13;51.42;100321.89;2332274;75;49643;-83
2024/04/08 11:24:59;;;;;;;8.28;2.35;;;;;;;22.13;51.43;100332.14;2365419;75;50586;-83
2024/04/08 11:28:01;;;;;;;4.50;2.40;;;;;;;22.14;51.44;100331.62;2367489;75;50711;-84
2024/04/08 11:31:06;;;;;;;7.17;2.40;;;;;;;22.15;51.41;100334.64;2367895;75;50684;-83
2024/04/08 11:34:08;;;;;;;4.85;2.45;;;;;;;22.16;51.44;100342.48;2306228;75;50754;-84
2024/04/08 11:37:11;;;;;;;3.90;2.20;;;;;;;22.17;51.39;100325.83;2332727;75;52574;-85
2024/04/08 11:40:13;;;;;;;5.05;2.60;;;;;;;22.17;51.36;100311.83;2367927;75;51932;-84
2024/04/08 11:43:15;;;;;;;6.75;2.72;;;;;;;22.18;51.38;100322.90;2367957;75;51455;-84
2024/04/08 11:46:18;;;;;;;6.10;2.50;;;;;;;22.20;51.39;100319.21;2332872;75;52374;-84
2024/04/08 11:49:20;;;;;;;4.92;2.17;;;;;;;22.20;51.38;100322.72;2368068;75;51570;-84
2024/04/08 11:52:23;;;;;;;4.60;2.52;;;;;;;22.21;51.41;100315.46;2368121;75;51521;-84
2024/04/08 11:55:25;;;;;;;6.30;2.20;;;;;;;22.21;51.36;100310.89;2332782;75;50190;-84
2024/04/08 11:58:27;;;;;;;5.50;2.40;;;;;;;22.22;51.41;100305.83;2368147;75;50693;-84
2024/04/08 12:01:29;;;;;;;4.47;2.35;;;;;;;22.23;51.44;100300.73;2332641;75;52337;-84
2024/04/08 12:04:32;;;;;;;5.03;2.42;;;;;;;22.23;51.41;100299.38;2367454;75;51897;-84
2024/04/08 12:07:34;;;;;;;5.65;2.60;;;;;;;22.24;51.43;100290.77;2367247;75;51504;-84
2024/04/08 12:10:36;;;;;;;3.25;2.15;;;;;;;22.25;51.40;100295.14;2304660;75;50562;-84
2024/04/08 12:13:38;;;;;;;3.00;2.40;;;;;;;22.25;51.42;100286.52;2331052;75;50732;-84
2024/04/08 12:16:41;;;;;;;5.50;2.20;;;;;;;22.26;51.49;100278.73;2367858;75;51560;-84
2024/04/08 12:19:43;;;;;;;4.67;2.30;;;;;;;22.27;51.48;100279.55;2333153;75;51662;-84
2024/04/08 12:22:45;;;;;;;3.67;2.33;;;;;;;22.27;51.48;100283.59;2368324;75;51592;-83
2024/04/08 12:25:47;;;;;;;4.80;2.25;;;;;;;22.27;51.54;100281.75;2332802;75;51100;-85
2024/04/08 12:28:49;;;;;;;4.37;2.75;;;;;;;22.28;51.50;100288.78;2368303;75;51516;-84
2024/04/08 12:31:52;;;;;;;4.55;2.40;;;;;;;22.29;51.52;100285.03;2368258;75;50069;-84
2024/04/08 12:34:54;;;;;;;3.52;2.10;;;;;;;22.29;51.45;100278.29;2306786;75;51087;-84
2024/04/08 12:37:56;;;;;;;4.35;2.42;;;;;;;22.31;51.39;100286.17;2368163;75;50169;-84
2024/04/08 12:40:58;;;;;;;3.62;2.30;;;;;;;22.32;51.29;100279.20;2368188;75;50186;-84
2024/04/08 12:44:00;;;;;;;3.67;2.20;;;;;;;22.32;51.25;100273.81;2368331;75;50708;-84
2024/04/08 12:47:03;;;;;;;3.58;1.98;;;;;;;22.31;51.19;100274.86;2368365;75;49987;-85
2024/04/08 12:50:07;;;;;;;6.85;2.35;;;;;;;22.32;51.19;100268.41;2306429;75;50356;-84
2024/04/08 12:53:09;;;;;;;5.28;2.30;;;;;;;22.32;51.20;100269.77;2306346;75;50686;-84
2024/04/08 12:56:11;;;;;;;3.98;2.30;;;;;;;22.34;51.17;100265.52;2368313;75;51741;-84
2024/04/08 12:59:13;;;;;;;3.95;2.30;;;;;;;22.35;51.14;100271.20;2333385;75;51298;-85
2024/04/08 13:02:16;;;;;;;3.65;2.25;;;;;;;22.34;51.12;100269.03;2368417;74;51766;-84
2024/04/08 13:05:18;;;;;;;5.08;2.10;;;;;;;22.35;51.10;100265.81;2368171;75;51176;-83
2024/04/08 13:08:20;;;;;;;2.75;1.90;;;;;;;22.35;51.15;100266.66;2368446;75;50542;-84
2024/04/08 13:11:22;;;;;;;3.20;2.10;;;;;;;22.36;51.09;100266.13;2368233;75;50713;-85
2024/04/08 13:14:24;;;;;;;5.42;2.20;;;;;;;22.36;51.10;100259.39;2333421;75;50947;-84
2024/04/08 13:17:27;;;;;;;3.33;2.27;;;;;;;22.36;51.17;100268.30;2331407;75;50742;-84
2024/04/08 13:20:29;;;;;;;4.12;2.17;;;;;;;22.36;51.07;100265.61;2332999;75;51436;-84
2024/04/08 13:23:31;;;;;;;3.87;2.27;;;;;;;22.38;51.07;100261.36;2307099;75;51028;-85
2024/04/08 13:26:33;;;;;;;5.83;2.08;;;;;;;22.38;50.99;100250.05;2331085;75;51389;-84
2024/04/08 13:29:36;;;;;;;4.97;2.17;;;;;;;22.38;50.93;100250.57;2367952;75;51407;-83
2024/04/08 13:32:38;;;;;;;4.25;2.12;;;;;;;22.39;50.99;100250.34;2367949;75;50759;-84
2024/04/08 13:35:40;;;;;;;4.37;2.20;;;;;;;22.38;50.89;100254.09;2367997;75;51442;-83
2024/04/08 13:38:43;;;;;;;4.90;2.33;;;;;;;22.38;50.88;100251.39;2332154;75;50990;-83
2024/04/08 13:41:45;;;;;;;4.17;1.90;;;;;;;22.38;50.83;100241.95;2367814;75;51554;-84
2024/04/08 13:44:48;;;;;;;4.20;2.15;;;;;;;22.40;50.87;100243.07;2367586;75;50398;-83
2024/04/08 13:47:50;;;;;;;7.17;2.20;;;;;;;22.39;50.83;100244.95;2332253;75;50981;-83
2024/04/08 13:50:52;;;;;;;4.37;2.10;;;;;;;22.39;50.85;100244.95;2367588;75;51529;-84
2024/04/08 13:53:54;;;;;;;6.75;2.35;;;;;;;22.39;50.83;100246.30;2367781;75;51440;-84
2024/04/08 13:56:57;;;;;;;5.92;2.08;;;;;;;22.40;50.85;100253.86;2367600;75;51445;-84
2024/04/08 13:59:59;;;;;;;3.58;2.15;;;;;;;22.41;50.76;100250.66;2367717;75;50358;-84
2024/04/08 14:03:02;;;;;;;2.87;2.00;;;;;;;22.41;50.65;100247.97;2332539;75;51122;-84
2024/04/08 14:06:05;;;;;;;3.70;1.87;;;;;;;22.41;50.65;100243.39;2367470;75;51469;-83
2024/04/08 14:09:08;;;;;;;5.10;2.33;;;;;;;22.41;50.68;100238.00;2333261;75;51547;-83